KJOT

Details ICAO KJOT (JOT)
Name JOLIET RGNL
Region United States
Timezone America/Chicago (UTC-6.0)
Plans Departing 9
Arriving 2
Stats Elevation 581 ft / 177 m (AMSL)
Location 41.517784° -88.175517°
Runways 2
Magnetic Variation 3.449° W
Sunrise 2017-12-15 13:13:44 UTC / 2017-12-15 07:13:44 Local
Sunset 2017-12-15 22:24:59 UTC / 2017-12-15 16:24:59 Local
Advertisement - Login to hide

Runways

ID Width Length Bearing (true) Bearing (mag) Surface Threshold Offset Overrun Length
04 140 ft / 43 m 3,227 ft / 984 m 44.10° 47.55° Grass 0 ft / 0 m 0 ft / 0 m
12 100 ft / 30 m 2,935 ft / 895 m 126.72° 130.17° Asphalt 220 ft / 67 m 0 ft / 0 m
22 140 ft / 43 m 3,227 ft / 984 m 224.11° 227.56° Grass 0 ft / 0 m 0 ft / 0 m
30 100 ft / 30 m 2,935 ft / 895 m 306.73° 310.18° Asphalt 80 ft / 24 m 0 ft / 0 m

Map

Weather


0- 5 10 15 20 25 30 35+ Temperature / ° C

Clouds and Precipitation
Forecast for 2017-12-15 18:00 UTC. Updated an hour ago

Ground ~20,000 ft ~40,000 ft Winds

METAR

KJOT 151815Z AUTO 28010G18KT 10SM OVC034 00/M07 A2995 RMK AO2 T00021074

TAF

Not found

Frequencies

Recorded 119.97 MHz AWOS 3
Approach 119.35 MHz CHICAGO APP/DEP
Unicom 122.70 MHz CTAF/UNICOM
Warning: Do not use this data for real-world aviation or navigation. No guarantee of current accuracy is given.